sensor_id;sensor_type;location;lat;lon;timestamp;temperature;humidity
18506;DHT22;9382;53.242;10.438;2022-09-21T00:01:46;5.90;99.90
18506;DHT22;9382;53.242;10.438;2022-09-21T00:04:13;5.90;99.90
18506;DHT22;9382;53.242;10.438;2022-09-21T00:06:41;5.90;99.90
18506;DHT22;9382;53.242;10.438;2022-09-21T00:09:08;5.90;99.90
18506;DHT22;9382;53.242;10.438;2022-09-21T00:11:35;5.80;99.90
18506;DHT22;9382;53.242;10.438;2022-09-21T00:14:04;5.80;99.90
18506;DHT22;9382;53.242;10.438;2022-09-21T00:16:33;5.90;99.90
18506;DHT22;9382;53.242;10.438;2022-09-21T00:19:00;5.90;99.90
18506;DHT22;9382;53.242;10.438;2022-09-21T00:21:27;5.80;99.90
18506;DHT22;9382;53.242;10.438;2022-09-21T00:23:55;5.80;99.90
18506;DHT22;9382;53.242;10.438;2022-09-21T00:26:24;5.80;99.90
18506;DHT22;9382;53.242;10.438;2022-09-21T00:28:52;5.80;99.90
18506;DHT22;9382;53.242;10.438;2022-09-21T00:31:20;5.80;99.90
18506;DHT22;9382;53.242;10.438;2022-09-21T00:33:47;5.80;99.90
18506;DHT22;9382;53.242;10.438;2022-09-21T00:36:17;5.80;99.90
18506;DHT22;9382;53.242;10.438;2022-09-21T00:38:44;5.70;99.90
18506;DHT22;9382;53.242;10.438;2022-09-21T00:41:15;5.80;99.90
18506;DHT22;9382;53.242;10.438;2022-09-21T00:43:45;5.70;99.90
18506;DHT22;9382;53.242;10.438;2022-09-21T00:46:18;5.70;99.90
18506;DHT22;9382;53.242;10.438;2022-09-21T00:48:48;5.70;99.90
18506;DHT22;9382;53.242;10.438;2022-09-21T00:51:15;5.70;99.90
18506;DHT22;9382;53.242;10.438;2022-09-21T00:53:43;5.70;99.90
18506;DHT22;9382;53.242;10.438;2022-09-21T00:56:11;5.60;99.90
18506;DHT22;9382;53.242;10.438;2022-09-21T00:58:42;5.60;99.90
18506;DHT22;9382;53.242;10.438;2022-09-21T01:01:11;5.60;99.90
18506;DHT22;9382;53.242;10.438;2022-09-21T01:03:40;5.60;99.90
18506;DHT22;9382;53.242;10.438;2022-09-21T01:06:10;5.60;99.90
18506;DHT22;9382;53.242;10.438;2022-09-21T01:08:37;5.60;99.90
18506;DHT22;9382;53.242;10.438;2022-09-21T01:14:14;5.50;99.90
18506;DHT22;9382;53.242;10.438;2022-09-21T01:16:51;5.50;99.90
18506;DHT22;9382;53.242;10.438;2022-09-21T01:19:38;5.50;99.90
18506;DHT22;9382;53.242;10.438;2022-09-21T01:22:17;5.40;99.90
18506;DHT22;9382;53.242;10.438;2022-09-21T01:24:50;5.50;99.90
18506;DHT22;9382;53.242;10.438;2022-09-21T01:27:37;5.40;99.90
18506;DHT22;9382;53.242;10.438;2022-09-21T01:30:10;5.40;99.90
18506;DHT22;9382;53.242;10.438;2022-09-21T01:32:41;5.40;99.90
18506;DHT22;9382;53.242;10.438;2022-09-21T01:35:11;5.30;99.90
18506;DHT22;9382;53.242;10.438;2022-09-21T01:37:43;5.30;99.90
18506;DHT22;9382;53.242;10.438;2022-09-21T01:40:13;5.30;99.90
18506;DHT22;9382;53.242;10.438;2022-09-21T01:42:44;5.30;99.90
18506;DHT22;9382;53.242;10.438;2022-09-21T01:45:15;5.30;99.90
18506;DHT22;9382;53.242;10.438;2022-09-21T01:47:45;5.30;99.90
18506;DHT22;9382;53.242;10.438;2022-09-21T01:50:14;5.20;99.90
18506;DHT22;9382;53.242;10.438;2022-09-21T01:52:44;5.20;99.90
18506;DHT22;9382;53.242;10.438;2022-09-21T01:55:16;5.10;99.90
18506;DHT22;9382;53.242;10.438;2022-09-21T01:57:48;5.20;99.90
18506;DHT22;9382;53.242;10.438;2022-09-21T02:00:19;5.20;99.90
18506;DHT22;9382;53.242;10.438;2022-09-21T02:02:49;5.20;99.90
18506;DHT22;9382;53.242;10.438;2022-09-21T02:05:19;5.20;99.90
18506;DHT22;9382;53.242;10.438;2022-09-21T02:07:47;5.20;99.90
18506;DHT22;9382;53.242;10.438;2022-09-21T02:10:18;5.10;99.90
18506;DHT22;9382;53.242;10.438;2022-09-21T02:12:47;5.20;99.90
18506;DHT22;9382;53.242;10.438;2022-09-21T02:15:18;5.10;99.90
18506;DHT22;9382;53.242;10.438;2022-09-21T02:17:53;5.10;99.90
18506;DHT22;9382;53.242;10.438;2022-09-21T02:20:28;5.10;99.90
18506;DHT22;9382;53.242;10.438;2022-09-21T02:23:01;5.10;99.90
18506;DHT22;9382;53.242;10.438;2022-09-21T02:25:37;5.10;99.90
18506;DHT22;9382;53.242;10.438;2022-09-21T02:28:08;5.10;99.90
18506;DHT22;9382;53.242;10.438;2022-09-21T02:30:40;5.10;99.90
18506;DHT22;9382;53.242;10.438;2022-09-21T02:33:17;5.00;99.90
18506;DHT22;9382;53.242;10.438;2022-09-21T02:35:48;5.00;99.90
18506;DHT22;9382;53.242;10.438;2022-09-21T02:38:20;5.00;99.90
18506;DHT22;9382;53.242;10.438;2022-09-21T02:40:52;5.00;99.90
18506;DHT22;9382;53.242;10.438;2022-09-21T02:43:23;4.90;99.90
18506;DHT22;9382;53.242;10.438;2022-09-21T02:45:57;4.90;99.90
18506;DHT22;9382;53.242;10.438;2022-09-21T02:48:30;4.90;99.90
18506;DHT22;9382;53.242;10.438;2022-09-21T02:51:02;4.90;99.90
18506;DHT22;9382;53.242;10.438;2022-09-21T02:53:32;4.90;99.90
18506;DHT22;9382;53.242;10.438;2022-09-21T02:56:02;4.90;99.90
18506;DHT22;9382;53.242;10.438;2022-09-21T02:58:34;4.80;99.90
18506;DHT22;9382;53.242;10.438;2022-09-21T03:01:04;4.80;99.90
18506;DHT22;9382;53.242;10.438;2022-09-21T03:03:33;4.80;99.90
18506;DHT22;9382;53.242;10.438;2022-09-21T03:06:00;4.80;99.90
18506;DHT22;9382;53.242;10.438;2022-09-21T03:08:27;4.80;99.90
18506;DHT22;9382;53.242;10.438;2022-09-21T03:10:55;4.70;99.90
18506;DHT22;9382;53.242;10.438;2022-09-21T03:13:22;4.70;99.90
18506;DHT22;9382;53.242;10.438;2022-09-21T03:15:57;4.70;99.90
18506;DHT22;9382;53.242;10.438;2022-09-21T03:18:25;4.70;99.90
18506;DHT22;9382;53.242;10.438;2022-09-21T03:20:52;4.70;99.90
18506;DHT22;9382;53.242;10.438;2022-09-21T03:23:19;4.70;99.90
18506;DHT22;9382;53.242;10.438;2022-09-21T03:25:46;4.70;99.90
18506;DHT22;9382;53.242;10.438;2022-09-21T03:28:14;4.70;99.90
18506;DHT22;9382;53.242;10.438;2022-09-21T03:30:41;4.70;99.90
18506;DHT22;9382;53.242;10.438;2022-09-21T03:33:08;4.70;99.90
18506;DHT22;9382;53.242;10.438;2022-09-21T03:35:36;4.80;99.90
18506;DHT22;9382;53.242;10.438;2022-09-21T03:38:03;4.70;99.90
18506;DHT22;9382;53.242;10.438;2022-09-21T03:40:30;4.70;99.90
18506;DHT22;9382;53.242;10.438;2022-09-21T03:42:57;4.70;99.90
18506;DHT22;9382;53.242;10.438;2022-09-21T03:45:23;4.60;99.90
18506;DHT22;9382;53.242;10.438;2022-09-21T03:47:54;4.60;99.90
18506;DHT22;9382;53.242;10.438;2022-09-21T03:50:21;4.60;99.90
18506;DHT22;9382;53.242;10.438;2022-09-21T03:52:49;4.50;99.90
18506;DHT22;9382;53.242;10.438;2022-09-21T03:55:16;4.40;99.90
18506;DHT22;9382;53.242;10.438;2022-09-21T03:57:43;4.50;99.90
18506;DHT22;9382;53.242;10.438;2022-09-21T04:00:10;4.50;99.90
18506;DHT22;9382;53.242;10.438;2022-09-21T04:02:37;4.50;99.90
18506;DHT22;9382;53.242;10.438;2022-09-21T04:05:06;4.50;99.90
18506;DHT22;9382;53.242;10.438;2022-09-21T04:07:33;4.50;99.90
18506;DHT22;9382;53.242;10.438;2022-09-21T04:10:03;4.50;99.90
18506;DHT22;9382;53.242;10.438;2022-09-21T04:12:31;4.50;99.90
18506;DHT22;9382;53.242;10.438;2022-09-21T04:14:59;4.50;99.90
18506;DHT22;9382;53.242;10.438;2022-09-21T04:17:26;4.50;99.90
18506;DHT22;9382;53.242;10.438;2022-09-21T04:19:52;4.40;99.90
18506;DHT22;9382;53.242;10.438;2022-09-21T04:22:19;4.40;99.90
18506;DHT22;9382;53.242;10.438;2022-09-21T04:24:46;4.40;99.90
18506;DHT22;9382;53.242;10.438;2022-09-21T04:27:14;4.40;99.90
18506;DHT22;9382;53.242;10.438;2022-09-21T04:29:40;4.40;99.90
18506;DHT22;9382;53.242;10.438;2022-09-21T04:32:07;4.30;99.90
18506;DHT22;9382;53.242;10.438;2022-09-21T04:34:35;4.30;99.90
18506;DHT22;9382;53.242;10.438;2022-09-21T04:37:04;4.30;99.90
18506;DHT22;9382;53.242;10.438;2022-09-21T04:39:32;4.40;99.90
18506;DHT22;9382;53.242;10.438;2022-09-21T04:41:59;4.40;99.90
18506;DHT22;9382;53.242;10.438;2022-09-21T04:44:28;4.40;99.90
18506;DHT22;9382;53.242;10.438;2022-09-21T04:46:55;4.30;99.90
18506;DHT22;9382;53.242;10.438;2022-09-21T04:49:22;4.30;99.90
18506;DHT22;9382;53.242;10.438;2022-09-21T04:51:49;4.30;99.90
18506;DHT22;9382;53.242;10.438;2022-09-21T04:54:16;4.30;99.90
18506;DHT22;9382;53.242;10.438;2022-09-21T04:56:44;4.20;99.90
18506;DHT22;9382;53.242;10.438;2022-09-21T04:59:11;4.20;99.90
18506;DHT22;9382;53.242;10.438;2022-09-21T05:01:39;4.20;99.90
18506;DHT22;9382;53.242;10.438;2022-09-21T05:04:05;4.20;99.90
18506;DHT22;9382;53.242;10.438;2022-09-21T05:06:33;4.20;99.90
18506;DHT22;9382;53.242;10.438;2022-09-21T05:09:00;4.30;99.90
18506;DHT22;9382;53.242;10.438;2022-09-21T05:11:44;4.30;99.90
18506;DHT22;9382;53.242;10.438;2022-09-21T05:14:11;4.30;99.90
18506;DHT22;9382;53.242;10.438;2022-09-21T05:16:40;4.30;99.90
18506;DHT22;9382;53.242;10.438;2022-09-21T05:19:06;4.30;99.90
18506;DHT22;9382;53.242;10.438;2022-09-21T05:21:33;4.30;99.90
18506;DHT22;9382;53.242;10.438;2022-09-21T05:24:01;4.30;99.90
18506;DHT22;9382;53.242;10.438;2022-09-21T05:26:27;4.30;99.90
18506;DHT22;9382;53.242;10.438;2022-09-21T05:28:55;4.40;99.90
18506;DHT22;9382;53.242;10.438;2022-09-21T05:31:37;4.40;99.90
18506;DHT22;9382;53.242;10.438;2022-09-21T05:34:20;4.40;99.90
18506;DHT22;9382;53.242;10.438;2022-09-21T05:36:53;4.40;99.90
18506;DHT22;9382;53.242;10.438;2022-09-21T05:39:22;4.40;99.90
18506;DHT22;9382;53.242;10.438;2022-09-21T05:41:49;4.50;99.90
18506;DHT22;9382;53.242;10.438;2022-09-21T05:44:16;4.60;99.90
18506;DHT22;9382;53.242;10.438;2022-09-21T05:46:47;4.60;99.90
18506;DHT22;9382;53.242;10.438;2022-09-21T05:49:21;4.70;99.90
18506;DHT22;9382;53.242;10.438;2022-09-21T05:51:57;4.70;99.90
18506;DHT22;9382;53.242;10.438;2022-09-21T05:54:36;4.80;99.90
18506;DHT22;9382;53.242;10.438;2022-09-21T05:57:07;4.90;99.90
18506;DHT22;9382;53.242;10.438;2022-09-21T05:59:49;4.90;99.90
18506;DHT22;9382;53.242;10.438;2022-09-21T06:02:25;5.00;99.90
18506;DHT22;9382;53.242;10.438;2022-09-21T06:04:56;5.10;99.90
18506;DHT22;9382;53.242;10.438;2022-09-21T06:07:25;5.10;99.90
18506;DHT22;9382;53.242;10.438;2022-09-21T06:09:51;5.20;99.90
18506;DHT22;9382;53.242;10.438;2022-09-21T06:12:18;5.30;99.90
18506;DHT22;9382;53.242;10.438;2022-09-21T06:14:45;5.40;99.90
18506;DHT22;9382;53.242;10.438;2022-09-21T06:17:12;5.50;99.90
18506;DHT22;9382;53.242;10.438;2022-09-21T06:19:38;5.50;99.90
18506;DHT22;9382;53.242;10.438;2022-09-21T06:22:06;5.60;99.90
18506;DHT22;9382;53.242;10.438;2022-09-21T06:24:33;5.70;99.90
18506;DHT22;9382;53.242;10.438;2022-09-21T06:27:00;5.80;99.90
18506;DHT22;9382;53.242;10.438;2022-09-21T06:29:27;5.90;99.90
18506;DHT22;9382;53.242;10.438;2022-09-21T06:31:53;6.00;99.90
18506;DHT22;9382;53.242;10.438;2022-09-21T06:34:20;6.20;99.90
18506;DHT22;9382;53.242;10.438;2022-09-21T06:36:47;6.30;99.90
18506;DHT22;9382;53.242;10.438;2022-09-21T06:39:15;6.40;99.90
18506;DHT22;9382;53.242;10.438;2022-09-21T06:41:41;6.50;99.90
18506;DHT22;9382;53.242;10.438;2022-09-21T06:44:08;6.70;99.90
18506;DHT22;9382;53.242;10.438;2022-09-21T06:46:35;6.80;99.90
18506;DHT22;9382;53.242;10.438;2022-09-21T06:49:02;7.00;99.90
18506;DHT22;9382;53.242;10.438;2022-09-21T06:51:28;7.10;99.90
18506;DHT22;9382;53.242;10.438;2022-09-21T06:53:56;7.30;99.90
18506;DHT22;9382;53.242;10.438;2022-09-21T06:56:25;7.50;99.90
18506;DHT22;9382;53.242;10.438;2022-09-21T06:58:52;7.70;99.90
18506;DHT22;9382;53.242;10.438;2022-09-21T07:01:19;7.90;99.90
18506;DHT22;9382;53.242;10.438;2022-09-21T07:03:48;8.10;99.90
18506;DHT22;9382;53.242;10.438;2022-09-21T07:06:17;8.30;99.90
18506;DHT22;9382;53.242;10.438;2022-09-21T07:08:45;8.50;99.90
18506;DHT22;9382;53.242;10.438;2022-09-21T07:11:12;8.60;99.90
18506;DHT22;9382;53.242;10.438;2022-09-21T07:13:41;8.80;99.90
18506;DHT22;9382;53.242;10.438;2022-09-21T07:16:08;8.90;99.90
18506;DHT22;9382;53.242;10.438;2022-09-21T07:18:35;9.20;99.90
18506;DHT22;9382;53.242;10.438;2022-09-21T07:21:03;9.40;99.90
18506;DHT22;9382;53.242;10.438;2022-09-21T07:23:30;9.60;99.90
18506;DHT22;9382;53.242;10.438;2022-09-21T07:26:01;9.80;99.90
18506;DHT22;9382;53.242;10.438;2022-09-21T07:28:28;10.00;99.90
18506;DHT22;9382;53.242;10.438;2022-09-21T07:30:57;10.30;99.90
18506;DHT22;9382;53.242;10.438;2022-09-21T07:33:24;10.50;99.90
18506;DHT22;9382;53.242;10.438;2022-09-21T07:35:53;10.70;99.90
18506;DHT22;9382;53.242;10.438;2022-09-21T07:38:22;10.90;99.90
18506;DHT22;9382;53.242;10.438;2022-09-21T07:40:49;11.00;99.90
18506;DHT22;9382;53.242;10.438;2022-09-21T07:43:15;11.10;99.90
18506;DHT22;9382;53.242;10.438;2022-09-21T07:45:43;11.30;99.90
18506;DHT22;9382;53.242;10.438;2022-09-21T07:48:11;11.50;99.90
18506;DHT22;9382;53.242;10.438;2022-09-21T07:50:37;11.70;99.90
18506;DHT22;9382;53.242;10.438;2022-09-21T07:53:04;11.80;99.90
18506;DHT22;9382;53.242;10.438;2022-09-21T07:55:31;11.80;99.90
18506;DHT22;9382;53.242;10.438;2022-09-21T07:57:58;11.90;99.90
18506;DHT22;9382;53.242;10.438;2022-09-21T08:00:42;12.10;99.90
18506;DHT22;9382;53.242;10.438;2022-09-21T08:03:11;12.20;99.90
18506;DHT22;9382;53.242;10.438;2022-09-21T08:05:38;12.40;99.90
18506;DHT22;9382;53.242;10.438;2022-09-21T08:08:04;12.50;99.90
18506;DHT22;9382;53.242;10.438;2022-09-21T08:10:31;12.70;99.90
18506;DHT22;9382;53.242;10.438;2022-09-21T08:12:59;12.80;99.90
18506;DHT22;9382;53.242;10.438;2022-09-21T08:15:26;13.00;99.90
18506;DHT22;9382;53.242;10.438;2022-09-21T08:17:53;13.20;99.90
18506;DHT22;9382;53.242;10.438;2022-09-21T08:20:22;13.30;99.90
18506;DHT22;9382;53.242;10.438;2022-09-21T08:22:49;13.30;99.90
18506;DHT22;9382;53.242;10.438;2022-09-21T08:25:18;13.50;99.90
18506;DHT22;9382;53.242;10.438;2022-09-21T08:27:45;13.60;99.90
18506;DHT22;9382;53.242;10.438;2022-09-21T08:30:12;13.80;99.90
18506;DHT22;9382;53.242;10.438;2022-09-21T08:32:39;13.90;99.90
18506;DHT22;9382;53.242;10.438;2022-09-21T08:35:07;14.00;99.90
18506;DHT22;9382;53.242;10.438;2022-09-21T08:37:36;14.30;99.90
18506;DHT22;9382;53.242;10.438;2022-09-21T08:40:03;14.40;99.90
18506;DHT22;9382;53.242;10.438;2022-09-21T08:42:39;14.60;99.90
18506;DHT22;9382;53.242;10.438;2022-09-21T08:45:12;14.70;99.90
18506;DHT22;9382;53.242;10.438;2022-09-21T08:47:44;14.90;99.90
18506;DHT22;9382;53.242;10.438;2022-09-21T08:50:25;15.20;99.90
18506;DHT22;9382;53.242;10.438;2022-09-21T08:52:59;15.50;99.90
18506;DHT22;9382;53.242;10.438;2022-09-21T08:55:27;15.60;99.90
18506;DHT22;9382;53.242;10.438;2022-09-21T08:57:53;15.70;99.90
18506;DHT22;9382;53.242;10.438;2022-09-21T09:00:20;15.80;99.90
18506;DHT22;9382;53.242;10.438;2022-09-21T09:03:15;16.00;99.90
18506;DHT22;9382;53.242;10.438;2022-09-21T09:05:48;16.30;99.90
18506;DHT22;9382;53.242;10.438;2022-09-21T09:11:18;16.60;99.90
18506;DHT22;9382;53.242;10.438;2022-09-21T09:14:11;16.60;99.90
18506;DHT22;9382;53.242;10.438;2022-09-21T09:16:48;16.80;99.90
18506;DHT22;9382;53.242;10.438;2022-09-21T09:19:21;17.00;99.90
18506;DHT22;9382;53.242;10.438;2022-09-21T09:21:49;17.00;99.90
18506;DHT22;9382;53.242;10.438;2022-09-21T09:24:31;17.20;99.90
18506;DHT22;9382;53.242;10.438;2022-09-21T09:27:01;17.30;99.90
18506;DHT22;9382;53.242;10.438;2022-09-21T09:29:35;17.50;99.90
18506;DHT22;9382;53.242;10.438;2022-09-21T09:32:03;17.50;99.90
18506;DHT22;9382;53.242;10.438;2022-09-21T09:34:34;17.60;99.90
18506;DHT22;9382;53.242;10.438;2022-09-21T09:37:10;17.50;99.90
18506;DHT22;9382;53.242;10.438;2022-09-21T09:39:39;17.60;99.90
18506;DHT22;9382;53.242;10.438;2022-09-21T09:42:21;17.70;99.90
18506;DHT22;9382;53.242;10.438;2022-09-21T09:45:18;17.60;99.90
18506;DHT22;9382;53.242;10.438;2022-09-21T09:47:57;17.70;99.90
18506;DHT22;9382;53.242;10.438;2022-09-21T09:50:28;17.90;99.90
18506;DHT22;9382;53.242;10.438;2022-09-21T09:53:01;18.20;99.90
18506;DHT22;9382;53.242;10.438;2022-09-21T09:55:35;18.50;99.90
18506;DHT22;9382;53.242;10.438;2022-09-21T09:58:03;18.70;99.90
18506;DHT22;9382;53.242;10.438;2022-09-21T10:00:30;18.80;99.90
18506;DHT22;9382;53.242;10.438;2022-09-21T10:02:57;19.00;99.90
18506;DHT22;9382;53.242;10.438;2022-09-21T10:05:31;18.90;99.90
18506;DHT22;9382;53.242;10.438;2022-09-21T10:07:58;18.90;99.90
18506;DHT22;9382;53.242;10.438;2022-09-21T10:10:35;18.80;99.90
18506;DHT22;9382;53.242;10.438;2022-09-21T10:13:09;19.00;99.90
18506;DHT22;9382;53.242;10.438;2022-09-21T10:15:43;19.40;99.90
18506;DHT22;9382;53.242;10.438;2022-09-21T10:18:17;19.50;99.90
18506;DHT22;9382;53.242;10.438;2022-09-21T10:20:53;19.20;99.90
18506;DHT22;9382;53.242;10.438;2022-09-21T10:23:21;18.70;99.90
18506;DHT22;9382;53.242;10.438;2022-09-21T10:25:56;18.20;99.90
18506;DHT22;9382;53.242;10.438;2022-09-21T10:28:24;18.10;99.90
18506;DHT22;9382;53.242;10.438;2022-09-21T10:31:07;18.30;99.90
18506;DHT22;9382;53.242;10.438;2022-09-21T10:33:45;18.80;99.90
18506;DHT22;9382;53.242;10.438;2022-09-21T10:36:27;19.20;99.90
18506;DHT22;9382;53.242;10.438;2022-09-21T10:38:56;19.60;99.90
18506;DHT22;9382;53.242;10.438;2022-09-21T10:41:37;19.90;99.90
18506;DHT22;9382;53.242;10.438;2022-09-21T10:44:12;20.00;99.90
18506;DHT22;9382;53.242;10.438;2022-09-21T10:46:40;20.30;99.90
18506;DHT22;9382;53.242;10.438;2022-09-21T10:49:14;20.50;99.90
18506;DHT22;9382;53.242;10.438;2022-09-21T10:51:44;20.90;99.90
18506;DHT22;9382;53.242;10.438;2022-09-21T10:54:17;21.10;99.90
18506;DHT22;9382;53.242;10.438;2022-09-21T10:57:01;21.20;99.90
18506;DHT22;9382;53.242;10.438;2022-09-21T10:59:30;21.20;99.90
18506;DHT22;9382;53.242;10.438;2022-09-21T11:01:58;21.20;99.90
18506;DHT22;9382;53.242;10.438;2022-09-21T11:04:40;21.30;99.90
18506;DHT22;9382;53.242;10.438;2022-09-21T11:07:14;21.10;99.90
18506;DHT22;9382;53.242;10.438;2022-09-21T11:09:46;20.90;99.90
18506;DHT22;9382;53.242;10.438;2022-09-21T11:12:28;20.80;99.90
18506;DHT22;9382;53.242;10.438;2022-09-21T11:15:01;20.90;99.90
18506;DHT22;9382;53.242;10.438;2022-09-21T11:17:35;21.20;99.90
18506;DHT22;9382;53.242;10.438;2022-09-21T11:20:13;21.40;99.90
18506;DHT22;9382;53.242;10.438;2022-09-21T11:22:48;21.60;99.90
18506;DHT22;9382;53.242;10.438;2022-09-21T11:25:27;21.90;99.90
18506;DHT22;9382;53.242;10.438;2022-09-21T11:28:01;22.10;99.90
18506;DHT22;9382;53.242;10.438;2022-09-21T11:30:37;22.50;99.90
18506;DHT22;9382;53.242;10.438;2022-09-21T11:33:15;22.80;99.90
18506;DHT22;9382;53.242;10.438;2022-09-21T11:35:51;23.20;99.90
18506;DHT22;9382;53.242;10.438;2022-09-21T11:38:29;23.40;99.90
18506;DHT22;9382;53.242;10.438;2022-09-21T11:41:19;23.80;99.90
18506;DHT22;9382;53.242;10.438;2022-09-21T11:44:05;24.10;99.90
18506;DHT22;9382;53.242;10.438;2022-09-21T11:46:41;24.40;99.90
18506;DHT22;9382;53.242;10.438;2022-09-21T11:49:25;24.90;99.90
18506;DHT22;9382;53.242;10.438;2022-09-21T11:52:05;25.60;99.90
18506;DHT22;9382;53.242;10.438;2022-09-21T11:57:35;26.10;99.90
18506;DHT22;9382;53.242;10.438;2022-09-21T12:00:13;26.30;99.90
18506;DHT22;9382;53.242;10.438;2022-09-21T12:03:08;26.30;97.40
18506;DHT22;9382;53.242;10.438;2022-09-21T12:05:43;26.60;99.90
18506;DHT22;9382;53.242;10.438;2022-09-21T12:08:35;27.00;95.50
18506;DHT22;9382;53.242;10.438;2022-09-21T12:11:14;26.90;98.70
18506;DHT22;9382;53.242;10.438;2022-09-21T12:13:50;27.50;98.00
18506;DHT22;9382;53.242;10.438;2022-09-21T12:16:27;27.50;93.30
18506;DHT22;9382;53.242;10.438;2022-09-21T12:19:01;27.80;93.00
18506;DHT22;9382;53.242;10.438;2022-09-21T12:21:33;27.90;91.10
18506;DHT22;9382;53.242;10.438;2022-09-21T12:24:03;28.20;93.00
18506;DHT22;9382;53.242;10.438;2022-09-21T12:26:35;28.10;92.60
18506;DHT22;9382;53.242;10.438;2022-09-21T12:29:09;28.40;89.70
18506;DHT22;9382;53.242;10.438;2022-09-21T12:31:44;28.10;93.80
18506;DHT22;9382;53.242;10.438;2022-09-21T12:34:18;26.20;88.80
18506;DHT22;9382;53.242;10.438;2022-09-21T12:36:53;25.10;95.20
18506;DHT22;9382;53.242;10.438;2022-09-21T12:39:26;26.00;92.90
18506;DHT22;9382;53.242;10.438;2022-09-21T12:41:58;27.00;92.00
18506;DHT22;9382;53.242;10.438;2022-09-21T12:44:33;28.10;88.80
18506;DHT22;9382;53.242;10.438;2022-09-21T12:47:21;28.60;89.60
18506;DHT22;9382;53.242;10.438;2022-09-21T12:49:50;29.70;90.80
18506;DHT22;9382;53.242;10.438;2022-09-21T12:52:22;30.40;87.10
18506;DHT22;9382;53.242;10.438;2022-09-21T12:54:55;30.70;81.90
18506;DHT22;9382;53.242;10.438;2022-09-21T12:57:29;30.90;79.70
18506;DHT22;9382;53.242;10.438;2022-09-21T13:00:02;31.00;77.40
18506;DHT22;9382;53.242;10.438;2022-09-21T13:02:34;29.30;83.60
18506;DHT22;9382;53.242;10.438;2022-09-21T13:05:07;28.50;87.60
18506;DHT22;9382;53.242;10.438;2022-09-21T13:10:45;30.00;85.40
18506;DHT22;9382;53.242;10.438;2022-09-21T13:13:21;30.60;82.00
18506;DHT22;9382;53.242;10.438;2022-09-21T13:15:50;31.00;84.60
18506;DHT22;9382;53.242;10.438;2022-09-21T13:18:22;31.50;79.30
18506;DHT22;9382;53.242;10.438;2022-09-21T13:20:50;30.80;72.50
18506;DHT22;9382;53.242;10.438;2022-09-21T13:23:22;30.40;74.30
18506;DHT22;9382;53.242;10.438;2022-09-21T13:25:59;30.60;72.50
18506;DHT22;9382;53.242;10.438;2022-09-21T13:29:05;30.90;76.40
18506;DHT22;9382;53.242;10.438;2022-09-21T13:31:51;31.50;79.80
18506;DHT22;9382;53.242;10.438;2022-09-21T13:34:28;32.00;76.50
18506;DHT22;9382;53.242;10.438;2022-09-21T13:37:28;32.40;67.20
18506;DHT22;9382;53.242;10.438;2022-09-21T13:46:52;33.40;73.30
18506;DHT22;9382;53.242;10.438;2022-09-21T13:49:29;33.90;63.70
18506;DHT22;9382;53.242;10.438;2022-09-21T13:52:00;33.80;66.60
18506;DHT22;9382;53.242;10.438;2022-09-21T13:54:30;34.20;67.60
18506;DHT22;9382;53.242;10.438;2022-09-21T13:57:04;34.00;60.40
18506;DHT22;9382;53.242;10.438;2022-09-21T13:59:35;34.10;60.70
18506;DHT22;9382;53.242;10.438;2022-09-21T14:02:22;33.70;66.40
18506;DHT22;9382;53.242;10.438;2022-09-21T14:04:52;34.20;66.80
18506;DHT22;9382;53.242;10.438;2022-09-21T14:07:27;34.20;59.40
18506;DHT22;9382;53.242;10.438;2022-09-21T14:09:58;33.70;63.10
18506;DHT22;9382;53.242;10.438;2022-09-21T14:12:30;33.90;58.90
18506;DHT22;9382;53.242;10.438;2022-09-21T14:15:10;33.80;66.80
18506;DHT22;9382;53.242;10.438;2022-09-21T14:17:38;33.90;64.60
18506;DHT22;9382;53.242;10.438;2022-09-21T14:20:26;34.20;62.30
18506;DHT22;9382;53.242;10.438;2022-09-21T14:23:11;33.80;58.40
18506;DHT22;9382;53.242;10.438;2022-09-21T14:25:52;33.30;59.70
18506;DHT22;9382;53.242;10.438;2022-09-21T14:28:42;33.50;64.20
18506;DHT22;9382;53.242;10.438;2022-09-21T14:31:17;33.70;64.90
18506;DHT22;9382;53.242;10.438;2022-09-21T14:33:47;34.30;65.10
18506;DHT22;9382;53.242;10.438;2022-09-21T14:36:18;34.70;64.00
18506;DHT22;9382;53.242;10.438;2022-09-21T14:38:49;34.90;58.20
18506;DHT22;9382;53.242;10.438;2022-09-21T14:41:18;34.90;57.50
18506;DHT22;9382;53.242;10.438;2022-09-21T14:43:49;34.60;58.40
18506;DHT22;9382;53.242;10.438;2022-09-21T14:46:28;34.80;59.40
18506;DHT22;9382;53.242;10.438;2022-09-21T14:49:06;34.70;57.70
18506;DHT22;9382;53.242;10.438;2022-09-21T14:51:44;34.90;59.50
18506;DHT22;9382;53.242;10.438;2022-09-21T14:54:28;34.70;57.50
18506;DHT22;9382;53.242;10.438;2022-09-21T14:57:12;33.80;55.80
18506;DHT22;9382;53.242;10.438;2022-09-21T14:59:51;33.30;62.20
18506;DHT22;9382;53.242;10.438;2022-09-21T15:02:22;33.70;57.20
18506;DHT22;9382;53.242;10.438;2022-09-21T15:07:47;34.20;57.60
18506;DHT22;9382;53.242;10.438;2022-09-21T15:10:36;34.10;56.00
18506;DHT22;9382;53.242;10.438;2022-09-21T15:13:38;33.80;58.10
18506;DHT22;9382;53.242;10.438;2022-09-21T15:16:18;34.00;56.70
18506;DHT22;9382;53.242;10.438;2022-09-21T15:18:48;34.10;56.00
18506;DHT22;9382;53.242;10.438;2022-09-21T15:21:20;33.90;57.20
18506;DHT22;9382;53.242;10.438;2022-09-21T15:23:50;33.30;57.50
18506;DHT22;9382;53.242;10.438;2022-09-21T15:26:20;33.50;60.90
18506;DHT22;9382;53.242;10.438;2022-09-21T15:28:53;33.60;61.00
18506;DHT22;9382;53.242;10.438;2022-09-21T15:31:21;33.90;61.30
18506;DHT22;9382;53.242;10.438;2022-09-21T15:33:48;34.10;59.40
18506;DHT22;9382;53.242;10.438;2022-09-21T15:36:21;33.90;59.10
18506;DHT22;9382;53.242;10.438;2022-09-21T15:38:50;33.50;61.00
18506;DHT22;9382;53.242;10.438;2022-09-21T15:41:37;33.30;59.00
18506;DHT22;9382;53.242;10.438;2022-09-21T15:44:11;33.00;62.50
18506;DHT22;9382;53.242;10.438;2022-09-21T15:46:39;32.80;65.30
18506;DHT22;9382;53.242;10.438;2022-09-21T15:49:10;32.80;60.40
18506;DHT22;9382;53.242;10.438;2022-09-21T15:51:40;33.10;59.30
18506;DHT22;9382;53.242;10.438;2022-09-21T15:54:21;31.50;62.30
18506;DHT22;9382;53.242;10.438;2022-09-21T15:56:49;28.80;68.70
18506;DHT22;9382;53.242;10.438;2022-09-21T15:59:18;26.60;68.80
18506;DHT22;9382;53.242;10.438;2022-09-21T16:01:48;26.00;72.00
18506;DHT22;9382;53.242;10.438;2022-09-21T16:04:16;27.00;72.00
18506;DHT22;9382;53.242;10.438;2022-09-21T16:06:45;28.00;68.40
18506;DHT22;9382;53.242;10.438;2022-09-21T16:09:37;28.70;68.00
18506;DHT22;9382;53.242;10.438;2022-09-21T16:12:38;28.90;66.20
18506;DHT22;9382;53.242;10.438;2022-09-21T16:17:56;26.50;69.70
18506;DHT22;9382;53.242;10.438;2022-09-21T16:20:38;24.60;76.40
18506;DHT22;9382;53.242;10.438;2022-09-21T16:23:12;23.70;81.50
18506;DHT22;9382;53.242;10.438;2022-09-21T16:25:41;23.00;79.00
18506;DHT22;9382;53.242;10.438;2022-09-21T16:28:27;22.00;83.00
18506;DHT22;9382;53.242;10.438;2022-09-21T16:30:55;20.80;91.40
18506;DHT22;9382;53.242;10.438;2022-09-21T16:33:34;19.80;92.60